Airfield :
LOGIN :

Register | Disclaimer

   EN    FR    IT 

 










Legend :    VFR   Marginal VFR   IFR   Intensive IFR   Very Intensive IFR
Visi :
Ceiling :
>= 8 km
>= 3000ft
5 to 8 km
1000 to 3000 ft
1500m to 5 km
500 to 1000 ft
800 to 1500m
200 to 500 ft
< 800m
< 200 ft
Symbols :   Thunderstorms  Fog  Heavy snow  Heavy precipitations  Wind > 20 kt
SIGMETs :     Misc.  Thunderstorms  Icing  Turbulence  Mountain Waves  Volcanic Ashes







- Airport Elevation : 266 ft
- IATA code : NCL
- Download approach charts


EGNT - Newcastle

CURRENT METAR :
  • 181120Z 15007KT 120V190 CAVOK 01/M03 Q1013

EXPIRED METARs :
  • 181050Z 15006KT 040V180 CAVOK 01/M03 Q1013
  • 181020Z 15004KT 100V180 CAVOK 00/M03 Q1014
  • 180950Z 14005KT 110V190 CAVOK M00/M03 Q1014
  • 180920Z 13006KT CAVOK M01/M03 Q1014
  • 180850Z 13004KT 110V170 CAVOK M02/M04 Q1014

TAF TAF EGNT
Valid from the 18 at 12:00 until the 19 at 12:00 UTC


181057Z 1812/1912 15008KT CAVOK
BECMG 1814/1817 BKN030
BECMG 1817/1820 BKN012
PROB40
TEMPO 1817/1906 5000 -RASN
BECMG 1820/1823 BKN008
PROB30
TEMPO 1901/1909 BKN004
ATIS : +44 191 214 3400
No reported NOTAMs for that airfield.



MET'MAP, your aeronautical weather chart ! - Copyright ORBIFLY December 2007 - Disclaimer

ORBIFLY MET'MAP TEAM :

Programming & Development : Alexandra Zaïnal
Concept & Development : Baudouin d'Aumeries
Co-Development & Prog : Marc-Olivier Méhu
Technical & hardware support : Manuel Goepfert

Contact : metmap@orbifly.com




SOURCES & CREDITS :

   NOAA